Time;durP1;ratioP1;P1;durP2;ratioP2;P2;SDS_P1;SDS_P2;PMS_P1;PMS_P2;Temp;Humidity;BMP_temperature;BMP_pressure;BME280_temperature;BME280_humidity;BME280_pressure;Samples;Min_cycle;Max_cycle;Signal;HPM_P1;HPM_P2
2021/08/23 00:00:25;;;;;;;2.43;0.87;;;18.00;99.90;;;;;;5051680;28;20230;-75
2021/08/23 00:02:50;;;;;;;5.40;1.30;;;18.10;99.90;;;;;;5037848;28;20171;-75
2021/08/23 00:05:16;;;;;;;1.37;1.23;;;18.10;99.90;;;;;;5034985;28;20290;-75
2021/08/23 00:07:42;;;;;;;0.83;0.70;;;18.10;99.90;;;;;;5031787;28;20558;-78
2021/08/23 00:10:08;;;;;;;2.30;1.43;;;18.10;99.90;;;;;;5031779;28;20171;-77
2021/08/23 00:12:34;;;;;;;1.43;1.07;;;18.10;99.90;;;;;;5031806;28;20171;-77
2021/08/23 00:14:59;;;;;;;1.47;1.30;;;18.20;99.90;;;;;;5031634;28;20804;-76
2021/08/23 00:17:25;;;;;;;2.03;1.37;;;18.20;99.90;;;;;;5040889;28;20688;-77
2021/08/23 00:19:50;;;;;;;1.10;0.70;;;18.20;99.90;;;;;;5034374;28;20609;-76
2021/08/23 00:22:32;;;;;;;8.83;3.27;;;18.20;99.90;;;;;;5025861;28;20648;-76
2021/08/23 00:25:00;;;;;;;1.30;1.20;;;18.20;99.90;;;;;;5047298;28;20213;-75
2021/08/23 00:27:29;;;;;;;1.30;0.90;;;18.30;99.90;;;;;;5031985;28;20437;-76
2021/08/23 00:29:55;;;;;;;0.90;0.80;;;18.30;99.90;;;;;;5051307;28;20897;-75
2021/08/23 00:32:21;;;;;;;1.70;0.80;;;18.30;99.90;;;;;;5045233;28;20430;-77
2021/08/23 00:34:47;;;;;;;2.00;1.00;;;18.30;99.90;;;;;;5031633;28;20429;-77
2021/08/23 00:37:17;;;;;;;1.30;1.20;;;18.20;99.90;;;;;;5032827;28;20541;-77
2021/08/23 00:39:43;;;;;;;0.90;0.77;;;18.20;99.90;;;;;;5034808;28;20981;-78
2021/08/23 00:42:08;;;;;;;2.60;1.37;;;18.20;99.90;;;;;;5040064;28;20452;-78
2021/08/23 00:44:36;;;;;;;0.97;0.60;;;18.20;99.90;;;;;;5033058;28;20921;-77
2021/08/23 00:47:02;;;;;;;0.70;0.60;;;18.20;99.90;;;;;;5042275;28;20270;-75
2021/08/23 00:49:29;;;;;;;0.70;0.60;;;18.20;99.90;;;;;;5024408;28;20939;-76
2021/08/23 00:51:55;;;;;;;0.80;0.70;;;18.10;99.90;;;;;;5044603;28;20436;-77
2021/08/23 00:54:21;;;;;;;2.27;1.20;;;18.10;99.90;;;;;;5044244;28;20428;-78
2021/08/23 00:56:49;;;;;;;1.60;1.10;;;18.10;99.90;;;;;;5030746;28;20860;-76
2021/08/23 00:59:14;;;;;;;4.77;1.00;;;18.10;99.90;;;;;;5034678;28;20196;-76
2021/08/23 01:01:49;;;;;;;1.13;1.03;;;18.10;99.90;;;;;;5031075;28;20405;-76
2021/08/23 01:04:21;;;;;;;1.20;0.87;;;18.10;99.90;;;;;;5039874;28;20171;-75
2021/08/23 01:06:48;;;;;;;2.30;1.17;;;18.00;99.90;;;;;;5034522;28;20422;-76
2021/08/23 01:09:16;;;;;;;0.80;0.80;;;18.00;99.90;;;;;;5035529;28;20422;-75
2021/08/23 01:11:49;;;;;;;1.47;1.17;;;18.00;99.90;;;;;;5034634;28;20882;-75
2021/08/23 01:14:14;;;;;;;0.93;0.77;;;18.00;99.90;;;;;;5034638;28;20423;-77
2021/08/23 01:16:40;;;;;;;1.03;0.90;;;18.00;99.90;;;;;;5024001;28;20421;-78
2021/08/23 01:19:05;;;;;;;1.43;1.33;;;18.00;99.90;;;;;;5046231;28;20289;-78
2021/08/23 01:21:31;;;;;;;0.90;0.80;;;18.00;99.90;;;;;;5042295;28;20615;-77
2021/08/23 01:23:58;;;;;;;1.23;0.87;;;18.00;99.90;;;;;;5037028;28;20175;-78
2021/08/23 01:26:30;;;;;;;1.17;0.80;;;18.10;99.90;;;;;;5035568;28;20410;-75
2021/08/23 01:29:06;;;;;;;1.10;0.70;;;18.10;99.90;;;;;;5042926;28;20422;-75
2021/08/23 01:31:38;;;;;;;1.07;0.97;;;18.10;99.90;;;;;;5034124;28;20425;-73
2021/08/23 01:34:06;;;;;;;1.63;1.53;;;18.10;99.90;;;;;;5035016;28;20935;-77
2021/08/23 01:36:32;;;;;;;0.83;0.77;;;18.10;99.90;;;;;;5042207;28;20449;-79
2021/08/23 01:38:59;;;;;;;3.30;2.00;;;18.10;99.90;;;;;;5021653;28;20422;-80
2021/08/23 01:41:24;;;;;;;1.53;1.30;;;18.10;99.90;;;;;;5038849;28;20433;-79
2021/08/23 01:43:51;;;;;;;2.07;0.97;;;18.10;99.90;;;;;;5057396;28;20953;-77
2021/08/23 01:46:16;;;;;;;0.80;0.70;;;18.10;99.90;;;;;;5052340;28;20255;-77
2021/08/23 01:48:42;;;;;;;1.33;1.23;;;18.20;99.90;;;;;;5037824;28;20484;-79
2021/08/23 01:51:08;;;;;;;0.70;0.60;;;18.20;99.90;;;;;;5042375;28;20441;-79
2021/08/23 01:53:33;;;;;;;2.13;1.30;;;18.30;99.90;;;;;;5035982;28;20174;-80
2021/08/23 01:56:00;;;;;;;1.03;0.93;;;18.30;99.90;;;;;;5051427;28;20210;-77
2021/08/23 01:58:26;;;;;;;1.73;1.07;;;18.30;99.90;;;;;;5052437;28;20611;-78
2021/08/23 02:00:51;;;;;;;1.03;0.80;;;18.30;99.90;;;;;;5034382;28;20501;-77
2021/08/23 02:03:17;;;;;;;0.70;0.53;;;18.30;99.90;;;;;;5042335;28;20179;-76
2021/08/23 02:05:42;;;;;;;0.70;0.60;;;18.30;99.90;;;;;;5052316;28;20205;-75
2021/08/23 02:08:08;;;;;;;1.43;1.33;;;18.20;99.90;;;;;;5047941;28;20306;-75
2021/08/23 02:10:34;;;;;;;1.00;0.90;;;18.20;99.90;;;;;;5038456;28;20167;-75
2021/08/23 02:13:00;;;;;;;1.13;1.03;;;18.30;99.90;;;;;;5034554;28;20788;-77
2021/08/23 02:15:25;;;;;;;0.80;0.63;;;18.30;99.90;;;;;;5032704;28;20194;-76
2021/08/23 02:17:51;;;;;;;0.90;0.80;;;18.30;99.90;;;;;;5046866;28;20206;-78
2021/08/23 02:20:16;;;;;;;1.67;1.27;;;18.30;99.90;;;;;;5045716;28;20206;-77
2021/08/23 02:22:42;;;;;;;9.23;3.40;;;18.30;99.90;;;;;;5034199;28;20186;-76
2021/08/23 02:25:09;;;;;;;3.17;2.70;;;18.30;99.90;;;;;;5048770;28;20179;-76
2021/08/23 02:27:35;;;;;;;1.47;0.80;;;18.30;99.90;;;;;;5034116;28;20200;-75
2021/08/23 02:30:01;;;;;;;0.90;0.80;;;18.30;99.90;;;;;;5032789;28;20450;-76
2021/08/23 02:32:27;;;;;;;0.70;0.53;;;18.20;99.90;;;;;;5034115;28;20523;-75
2021/08/23 02:34:52;;;;;;;0.80;0.70;;;18.20;99.90;;;;;;5042070;28;20437;-76
2021/08/23 02:37:18;;;;;;;1.20;1.10;;;18.20;99.90;;;;;;5050201;28;20210;-75
2021/08/23 02:39:43;;;;;;;1.10;0.63;;;18.20;99.90;;;;;;5033687;28;20207;-75
2021/08/23 02:42:09;;;;;;;1.53;1.33;;;18.20;99.90;;;;;;5044935;28;20172;-78
2021/08/23 02:44:35;;;;;;;1.93;0.90;;;18.20;99.90;;;;;;5038259;28;20179;-78
2021/08/23 02:47:00;;;;;;;1.53;1.23;;;18.10;99.90;;;;;;5037857;28;20199;-75
2021/08/23 02:49:26;;;;;;;0.80;0.80;;;18.10;99.90;;;;;;5036543;28;20564;-76
2021/08/23 02:51:53;;;;;;;0.83;0.67;;;18.10;99.90;;;;;;5037019;28;20171;-75
2021/08/23 02:54:18;;;;;;;1.40;1.30;;;18.10;99.90;;;;;;5033251;28;20484;-75
2021/08/23 02:56:44;;;;;;;0.90;0.90;;;18.10;99.90;;;;;;5026378;28;22543;-76
2021/08/23 02:59:09;;;;;;;1.77;1.67;;;18.10;99.90;;;;;;5042425;28;20628;-77
2021/08/23 03:01:35;;;;;;;0.90;0.60;;;18.10;99.90;;;;;;5051625;28;20182;-78
2021/08/23 03:04:00;;;;;;;1.17;1.07;;;18.00;99.90;;;;;;5034208;28;20194;-79
2021/08/23 03:06:26;;;;;;;1.53;1.43;;;18.00;99.90;;;;;;5034019;28;20179;-77
2021/08/23 03:08:52;;;;;;;2.60;1.73;;;18.00;99.90;;;;;;5035860;28;20329;-77
2021/08/23 03:11:17;;;;;;;1.43;1.13;;;18.00;99.90;;;;;;5027866;28;20186;-77
2021/08/23 03:13:43;;;;;;;3.67;2.33;;;18.00;99.90;;;;;;5052845;28;20186;-77
2021/08/23 03:16:11;;;;;;;1.33;1.23;;;18.00;99.90;;;;;;5033624;28;20171;-78
2021/08/23 03:18:36;;;;;;;1.87;1.77;;;18.00;99.90;;;;;;5044107;28;20475;-77
2021/08/23 03:21:03;;;;;;;1.10;1.00;;;17.90;99.90;;;;;;5028630;28;20473;-78
2021/08/23 03:23:29;;;;;;;5.13;1.10;;;17.90;99.90;;;;;;5034747;28;20422;-77
2021/08/23 03:25:55;;;;;;;1.13;1.03;;;17.90;99.90;;;;;;5019521;28;20422;-75
2021/08/23 03:28:21;;;;;;;1.10;0.80;;;17.90;99.90;;;;;;5052134;28;20487;-76
2021/08/23 03:30:47;;;;;;;1.47;1.20;;;17.80;99.90;;;;;;5041043;28;20468;-75
2021/08/23 03:33:14;;;;;;;0.90;0.90;;;17.80;99.90;;;;;;5038107;28;20780;-78
2021/08/23 03:35:40;;;;;;;1.27;1.17;;;17.80;99.90;;;;;;5047342;28;20421;-77
2021/08/23 03:38:06;;;;;;;5.90;1.20;;;17.80;99.90;;;;;;5036203;28;20486;-75
2021/08/23 03:40:32;;;;;;;1.10;1.00;;;17.80;99.90;;;;;;5051855;28;20257;-76
2021/08/23 03:42:57;;;;;;;1.40;1.30;;;17.80;99.90;;;;;;5036219;28;20441;-76
2021/08/23 03:45:23;;;;;;;1.30;1.20;;;17.70;99.90;;;;;;5051645;28;20167;-75
2021/08/23 03:47:48;;;;;;;1.63;1.53;;;17.70;99.90;;;;;;5039924;28;20218;-77
2021/08/23 03:50:14;;;;;;;1.13;1.03;;;17.80;99.90;;;;;;5033448;28;20180;-75
2021/08/23 03:52:40;;;;;;;2.67;1.40;;;17.80;99.90;;;;;;5039059;28;20191;-78
2021/08/23 03:55:07;;;;;;;0.93;0.87;;;17.80;99.90;;;;;;5035631;28;20186;-77
2021/08/23 03:57:35;;;;;;;0.97;0.87;;;17.80;99.90;;;;;;5053567;28;20662;-76
2021/08/23 04:00:03;;;;;;;1.67;1.57;;;17.80;99.90;;;;;;5044837;28;20461;-78
2021/08/23 04:02:28;;;;;;;1.83;1.73;;;17.80;99.90;;;;;;5034845;28;20508;-78
2021/08/23 04:04:54;;;;;;;5.90;3.03;;;17.80;99.90;;;;;;5038048;28;20418;-78
2021/08/23 04:07:19;;;;;;;1.57;0.90;;;17.80;99.90;;;;;;5016392;28;20187;-77
2021/08/23 04:09:45;;;;;;;1.20;1.10;;;17.80;99.90;;;;;;5022311;28;20209;-78
2021/08/23 04:12:10;;;;;;;2.03;1.43;;;17.80;99.90;;;;;;5054184;28;20190;-78
2021/08/23 04:14:35;;;;;;;2.20;0.70;;;17.80;99.90;;;;;;5037959;28;20191;-78
2021/08/23 04:17:01;;;;;;;2.10;1.00;;;17.80;99.90;;;;;;5038166;28;20668;-74
2021/08/23 04:19:29;;;;;;;1.60;1.50;;;17.80;99.90;;;;;;5034240;28;20699;-78
2021/08/23 04:21:54;;;;;;;0.70;0.60;;;17.80;99.90;;;;;;5033060;28;20547;-78
2021/08/23 04:24:20;;;;;;;1.90;1.53;;;17.80;99.90;;;;;;5036043;28;20430;-76
2021/08/23 04:26:45;;;;;;;0.87;0.83;;;17.80;99.90;;;;;;5050485;28;20182;-76
2021/08/23 04:29:11;;;;;;;1.10;1.00;;;17.80;99.90;;;;;;5035204;28;20186;-78
2021/08/23 04:31:37;;;;;;;1.10;0.63;;;17.80;99.90;;;;;;5038172;28;20184;-78
2021/08/23 04:34:02;;;;;;;0.93;0.77;;;17.80;99.90;;;;;;5044650;28;20188;-78
2021/08/23 04:36:28;;;;;;;1.27;1.17;;;17.80;99.90;;;;;;5033152;28;20553;-77
2021/08/23 04:38:54;;;;;;;1.63;1.53;;;17.80;99.90;;;;;;5037073;28;20279;-78
2021/08/23 04:41:19;;;;;;;1.90;1.80;;;17.90;99.90;;;;;;5024004;28;20644;-77
2021/08/23 04:43:45;;;;;;;2.40;2.20;;;17.90;99.90;;;;;;5040783;28;20175;-76
2021/08/23 04:46:10;;;;;;;1.00;0.90;;;17.90;99.90;;;;;;5041539;28;20237;-76
2021/08/23 04:48:36;;;;;;;0.90;0.80;;;17.90;99.90;;;;;;5035050;28;20183;-76
2021/08/23 04:51:06;;;;;;;1.37;1.27;;;18.00;99.90;;;;;;5035103;28;20636;-75
2021/08/23 04:53:32;;;;;;;1.53;1.43;;;18.00;99.90;;;;;;5038250;28;20176;-77
2021/08/23 04:55:57;;;;;;;5.37;1.30;;;18.00;99.90;;;;;;5025805;28;20490;-78
2021/08/23 04:58:23;;;;;;;1.43;1.33;;;18.00;99.90;;;;;;5036437;28;20210;-78
2021/08/23 05:00:49;;;;;;;1.20;1.10;;;18.00;99.90;;;;;;5044071;28;20201;-77
2021/08/23 05:03:15;;;;;;;1.67;1.57;;;18.10;99.90;;;;;;5032898;28;20270;-76
2021/08/23 05:05:41;;;;;;;2.80;2.20;;;18.10;99.90;;;;;;5052258;28;20225;-77
2021/08/23 05:08:07;;;;;;;1.20;1.10;;;18.10;99.90;;;;;;5035937;28;20541;-75
2021/08/23 05:10:33;;;;;;;1.17;1.10;;;18.10;99.90;;;;;;5025621;28;20433;-76
2021/08/23 05:12:58;;;;;;;1.27;1.10;;;18.10;99.90;;;;;;5016744;28;20961;-75
2021/08/23 05:15:24;;;;;;;5.83;1.50;;;18.10;99.90;;;;;;5048121;28;20454;-78
2021/08/23 05:17:50;;;;;;;2.30;0.97;;;18.10;99.90;;;;;;5027717;28;20194;-78
2021/08/23 05:20:16;;;;;;;8.93;1.30;;;18.20;99.90;;;;;;5034590;28;20222;-76
2021/08/23 05:22:41;;;;;;;1.33;1.23;;;18.20;99.90;;;;;;5044469;28;20802;-78
2021/08/23 05:25:07;;;;;;;2.50;1.20;;;18.20;99.90;;;;;;5044607;28;20224;-77
2021/08/23 05:27:33;;;;;;;2.33;1.60;;;18.20;99.90;;;;;;5039246;28;20587;-78
2021/08/23 05:30:06;;;;;;;0.90;0.70;;;18.20;99.90;;;;;;5046923;28;20523;-79
2021/08/23 05:32:31;;;;;;;1.13;1.03;;;18.20;99.90;;;;;;5034547;28;20187;-78
2021/08/23 05:34:58;;;;;;;2.30;2.10;;;18.20;99.90;;;;;;5042548;28;21323;-75
2021/08/23 05:37:24;;;;;;;1.80;1.70;;;18.20;99.90;;;;;;5040798;28;20212;-77
2021/08/23 05:39:50;;;;;;;1.47;1.37;;;18.30;99.90;;;;;;5044359;28;20453;-78
2021/08/23 05:42:16;;;;;;;2.60;2.40;;;18.30;99.90;;;;;;5047643;28;21018;-78
2021/08/23 05:44:42;;;;;;;1.73;1.23;;;18.30;99.90;;;;;;5021189;28;20484;-76
2021/08/23 05:47:08;;;;;;;4.00;1.20;;;18.30;99.90;;;;;;5026299;28;20234;-75
2021/08/23 05:49:33;;;;;;;1.97;1.57;;;18.40;99.90;;;;;;5029813;28;20426;-77
2021/08/23 05:52:00;;;;;;;3.70;1.83;;;18.50;99.90;;;;;;5035302;28;20449;-79
2021/08/23 05:54:27;;;;;;;2.70;2.10;;;18.70;99.90;;;;;;5025235;28;20257;-79
2021/08/23 05:56:53;;;;;;;3.73;1.47;;;18.90;99.90;;;;;;5049369;28;21020;-78
2021/08/23 05:59:19;;;;;;;1.40;1.30;;;18.90;99.90;;;;;;5046289;28;20457;-78
2021/08/23 06:01:45;;;;;;;1.37;1.27;;;19.00;99.90;;;;;;5055929;28;20412;-79
2021/08/23 06:04:10;;;;;;;1.83;1.73;;;19.00;99.90;;;;;;5035544;28;20768;-78
2021/08/23 06:06:38;;;;;;;2.50;1.47;;;19.00;99.90;;;;;;5052614;28;20625;-77
2021/08/23 06:09:03;;;;;;;1.33;1.23;;;19.10;99.90;;;;;;5037166;28;20814;-78
2021/08/23 06:11:29;;;;;;;1.30;0.83;;;19.10;99.90;;;;;;5039473;28;20426;-79
2021/08/23 06:13:54;;;;;;;2.70;1.83;;;19.10;99.90;;;;;;5038984;28;20248;-78
2021/08/23 06:16:20;;;;;;;2.33;1.70;;;19.10;99.90;;;;;;5038069;28;20552;-78
2021/08/23 06:18:46;;;;;;;11.57;2.67;;;19.20;99.90;;;;;;5038840;28;20667;-79
2021/08/23 06:21:11;;;;;;;2.30;2.20;;;19.20;99.90;;;;;;5043490;28;20215;-78
2021/08/23 06:23:37;;;;;;;1.43;1.33;;;19.20;99.90;;;;;;5041009;28;20175;-79
2021/08/23 06:26:03;;;;;;;1.83;1.13;;;19.20;99.90;;;;;;5037243;28;20179;-78
2021/08/23 06:28:28;;;;;;;1.20;1.10;;;19.30;99.90;;;;;;5046328;28;20203;-77
2021/08/23 06:30:54;;;;;;;0.70;0.70;;;19.40;99.90;;;;;;5019540;28;21273;-79
2021/08/23 06:33:20;;;;;;;1.00;0.90;;;19.50;99.90;;;;;;5032133;28;20654;-79
2021/08/23 06:35:45;;;;;;;1.77;1.67;;;19.50;99.90;;;;;;5047931;28;20718;-79
2021/08/23 06:38:11;;;;;;;1.03;0.97;;;19.60;99.90;;;;;;5027345;28;20217;-78
2021/08/23 06:40:36;;;;;;;6.20;5.00;;;19.60;99.90;;;;;;5044226;28;20312;-79
2021/08/23 06:43:03;;;;;;;2.83;2.60;;;19.60;99.90;;;;;;5036689;28;20191;-79
2021/08/23 06:45:29;;;;;;;2.30;2.10;;;19.70;99.90;;;;;;5046186;28;20224;-78
2021/08/23 06:47:54;;;;;;;2.90;1.53;;;19.80;99.90;;;;;;5034911;28;20452;-79
2021/08/23 06:50:20;;;;;;;1.63;1.53;;;19.90;99.90;;;;;;5039000;28;20182;-75
2021/08/23 06:52:46;;;;;;;4.40;1.83;;;20.00;99.90;;;;;;5025006;28;20683;-79
2021/08/23 06:55:11;;;;;;;3.37;1.43;;;20.00;99.90;;;;;;5024391;28;20637;-79
2021/08/23 06:57:37;;;;;;;1.43;1.33;;;20.10;99.90;;;;;;5034504;28;20605;-80
2021/08/23 07:00:04;;;;;;;1.97;1.83;;;20.10;99.90;;;;;;5056318;28;20756;-78
2021/08/23 07:02:30;;;;;;;1.93;1.40;;;20.10;99.90;;;;;;5043904;28;20171;-79
2021/08/23 07:04:55;;;;;;;2.53;1.70;;;20.10;99.90;;;;;;5035770;28;20430;-79
2021/08/23 07:07:21;;;;;;;2.90;1.40;;;20.20;99.90;;;;;;5021713;28;20202;-79
2021/08/23 07:09:46;;;;;;;2.47;0.90;;;20.20;99.90;;;;;;5043512;28;20175;-79
2021/08/23 07:12:12;;;;;;;2.00;1.80;;;20.30;99.90;;;;;;5034009;28;20289;-80
2021/08/23 07:14:37;;;;;;;2.80;2.00;;;20.40;99.90;;;;;;5036315;28;20189;-78
2021/08/23 07:17:04;;;;;;;3.07;1.77;;;20.60;99.90;;;;;;5037645;28;20222;-77
2021/08/23 07:19:30;;;;;;;3.23;2.77;;;20.70;99.90;;;;;;5016963;28;20195;-78
2021/08/23 07:21:55;;;;;;;3.93;1.90;;;20.90;99.90;;;;;;5032278;28;20442;-79
2021/08/23 07:24:21;;;;;;;1.67;0.90;;;20.90;99.90;;;;;;5031865;28;20225;-80
2021/08/23 07:26:46;;;;;;;1.50;1.40;;;20.90;99.90;;;;;;5037049;28;20663;-80
2021/08/23 07:29:15;;;;;;;1.67;1.23;;;21.00;99.90;;;;;;5040562;28;20176;-79
2021/08/23 07:31:42;;;;;;;2.83;2.63;;;21.00;99.90;;;;;;5042328;28;20190;-79
2021/08/23 07:34:07;;;;;;;4.23;2.53;;;21.00;99.90;;;;;;5036517;28;20437;-80
2021/08/23 07:36:33;;;;;;;1.43;0.90;;;21.10;99.90;;;;;;5041731;28;20469;-79
2021/08/23 07:38:59;;;;;;;2.27;2.07;;;21.10;99.90;;;;;;5022693;28;20179;-79
2021/08/23 07:41:24;;;;;;;2.80;2.03;;;21.00;99.90;;;;;;5028515;28;20178;-77
2021/08/23 07:43:50;;;;;;;3.93;2.57;;;20.90;99.90;;;;;;5019062;28;20168;-80
2021/08/23 07:46:16;;;;;;;2.73;2.13;;;20.80;99.90;;;;;;5028519;28;20671;-80
2021/08/23 07:48:44;;;;;;;4.27;2.30;;;20.80;99.90;;;;;;5046307;28;20450;-79
2021/08/23 07:51:10;;;;;;;2.23;1.53;;;20.70;99.90;;;;;;5034698;28;20210;-80
2021/08/23 07:53:36;;;;;;;2.83;2.47;;;20.60;99.90;;;;;;5036666;28;20524;-79
2021/08/23 07:56:02;;;;;;;1.93;1.53;;;20.60;99.90;;;;;;5037023;28;20445;-80
2021/08/23 07:58:27;;;;;;;1.33;1.23;;;20.60;99.90;;;;;;5034066;28;20449;-79
2021/08/23 08:00:53;;;;;;;5.17;1.33;;;20.60;99.90;;;;;;5030797;28;20194;-78
2021/08/23 08:03:18;;;;;;;3.20;1.60;;;20.50;99.90;;;;;;5038886;28;20175;-80
2021/08/23 08:05:44;;;;;;;1.47;1.37;;;20.50;99.90;;;;;;5046208;28;20544;-79
2021/08/23 08:08:10;;;;;;;3.57;3.33;;;20.50;99.90;;;;;;5044078;28;20197;-80
2021/08/23 08:10:36;;;;;;;2.67;2.13;;;20.60;99.90;;;;;;5036873;28;20194;-80
2021/08/23 08:13:02;;;;;;;6.07;3.60;;;20.70;99.90;;;;;;5041960;28;20181;-79
2021/08/23 08:15:28;;;;;;;5.83;2.80;;;20.80;99.90;;;;;;5041687;28;20512;-79
2021/08/23 08:17:53;;;;;;;6.53;2.63;;;20.90;99.90;;;;;;5056667;28;20495;-77
2021/08/23 08:20:19;;;;;;;2.70;2.17;;;21.00;99.90;;;;;;5034291;28;20203;-79
2021/08/23 08:22:44;;;;;;;3.27;2.97;;;21.00;99.90;;;;;;5036710;28;20250;-79
2021/08/23 08:25:11;;;;;;;4.40;2.33;;;21.10;99.90;;;;;;5036462;28;20262;-79
2021/08/23 08:27:37;;;;;;;4.57;1.90;;;21.20;99.90;;;;;;5048881;28;20724;-79
2021/08/23 08:30:05;;;;;;;3.83;2.70;;;21.30;99.90;;;;;;5036575;28;20476;-79
2021/08/23 08:32:30;;;;;;;1.13;1.03;;;21.30;99.90;;;;;;5040338;28;20429;-78
2021/08/23 08:34:56;;;;;;;4.87;4.47;;;21.30;99.90;;;;;;5039311;28;20965;-79
2021/08/23 08:37:22;;;;;;;3.67;2.13;;;21.30;99.90;;;;;;5040688;28;20195;-79
2021/08/23 08:39:47;;;;;;;3.43;1.97;;;21.30;99.90;;;;;;5059659;28;20675;-79
2021/08/23 08:42:18;;;;;;;1.80;1.30;;;21.30;99.90;;;;;;5034213;28;20319;-79
2021/08/23 08:44:44;;;;;;;5.80;2.20;;;21.20;99.90;;;;;;5034095;28;20239;-79
2021/08/23 08:47:17;;;;;;;4.07;3.60;;;21.30;99.90;;;;;;5039786;28;20526;-78
2021/08/23 08:49:43;;;;;;;2.60;2.40;;;21.20;99.90;;;;;;5044918;28;20442;-79
2021/08/23 08:52:10;;;;;;;2.50;2.30;;;21.10;99.90;;;;;;5029995;28;20440;-79
2021/08/23 08:54:38;;;;;;;2.30;1.80;;;21.10;99.90;;;;;;5027560;28;20433;-80
2021/08/23 08:57:04;;;;;;;3.80;2.77;;;21.10;99.90;;;;;;5041829;28;20438;-77
2021/08/23 08:59:30;;;;;;;2.13;2.03;;;21.10;99.90;;;;;;5042999;28;20461;-78
2021/08/23 09:01:56;;;;;;;4.57;2.13;;;21.10;99.90;;;;;;5040078;28;20430;-76
2021/08/23 09:04:30;;;;;;;2.97;2.00;;;21.20;99.90;;;;;;5034461;28;20429;-76
2021/08/23 09:06:58;;;;;;;2.43;2.13;;;21.20;99.90;;;;;;5035337;28;20492;-76
2021/08/23 09:09:25;;;;;;;3.00;2.70;;;21.30;99.90;;;;;;5039665;28;20424;-76
2021/08/23 09:11:55;;;;;;;1.93;1.77;;;21.30;99.90;;;;;;5044568;28;20477;-76
2021/08/23 09:14:21;;;;;;;2.70;1.63;;;21.30;99.90;;;;;;5016832;28;20430;-76
2021/08/23 09:16:47;;;;;;;3.50;2.53;;;21.20;99.90;;;;;;5034121;28;20888;-75
2021/08/23 09:19:25;;;;;;;6.43;2.87;;;21.10;99.90;;;;;;5035195;28;20552;-76
2021/08/23 09:22:00;;;;;;;2.63;2.43;;;20.90;99.90;;;;;;5027399;28;20174;-76
2021/08/23 09:24:29;;;;;;;3.00;1.30;;;20.80;99.90;;;;;;5053894;28;20416;-77
2021/08/23 09:27:09;;;;;;;6.93;3.13;;;20.70;99.90;;;;;;5036474;28;20445;-76
2021/08/23 09:29:55;;;;;;;4.83;2.70;;;20.60;99.90;;;;;;5034508;28;20445;-76
2021/08/23 09:32:35;;;;;;;1.67;1.57;;;20.50;99.90;;;;;;5043787;28;20566;-75
2021/08/23 09:35:01;;;;;;;2.67;2.50;;;20.40;99.90;;;;;;5051581;28;20536;-76
2021/08/23 09:37:29;;;;;;;6.23;3.63;;;20.40;99.90;;;;;;5054608;28;20532;-76
2021/08/23 09:39:55;;;;;;;4.17;3.80;;;20.40;99.90;;;;;;5054936;28;20449;-76
2021/08/23 09:42:22;;;;;;;2.97;2.70;;;20.50;99.90;;;;;;5043215;28;20418;-76
2021/08/23 09:44:49;;;;;;;1.93;1.77;;;20.50;99.90;;;;;;5049003;28;20429;-76
2021/08/23 09:47:15;;;;;;;3.83;1.33;;;20.70;99.90;;;;;;5053155;28;20425;-76
2021/08/23 09:49:47;;;;;;;3.27;2.97;;;20.80;99.90;;;;;;5037442;28;20487;-78
2021/08/23 09:52:16;;;;;;;3.97;2.77;;;20.90;99.90;;;;;;5038823;28;20791;-74
2021/08/23 09:54:42;;;;;;;2.43;2.23;;;20.90;99.90;;;;;;5032657;28;20430;-74
2021/08/23 09:57:11;;;;;;;1.80;1.70;;;21.00;99.90;;;;;;5042384;28;20453;-74
2021/08/23 09:59:39;;;;;;;1.80;1.70;;;21.00;99.90;;;;;;5035580;28;20252;-74
2021/08/23 10:02:08;;;;;;;1.50;1.10;;;20.90;99.90;;;;;;5029741;28;20425;-74
2021/08/23 10:04:34;;;;;;;3.33;2.33;;;20.90;99.90;;;;;;5053564;28;20406;-74
2021/08/23 10:07:00;;;;;;;2.23;1.17;;;20.90;99.90;;;;;;5053279;28;20461;-74
2021/08/23 10:09:27;;;;;;;2.17;2.07;;;20.90;99.90;;;;;;5053318;28;20410;-74
2021/08/23 10:11:59;;;;;;;3.00;2.63;;;20.70;99.90;;;;;;5053427;28;20830;-74
2021/08/23 10:14:25;;;;;;;4.97;2.10;;;20.70;99.90;;;;;;5053673;28;20759;-74
2021/08/23 10:16:51;;;;;;;1.57;1.37;;;20.60;99.90;;;;;;5052750;28;20499;-74
2021/08/23 10:19:17;;;;;;;1.47;1.33;;;20.70;99.90;;;;;;5053505;28;20417;-74
2021/08/23 10:21:48;;;;;;;1.60;1.50;;;20.80;99.90;;;;;;5053470;28;20398;-75
2021/08/23 10:24:23;;;;;;;3.03;1.47;;;21.00;99.90;;;;;;5053130;28;20401;-75
2021/08/23 10:26:49;;;;;;;2.53;1.67;;;21.50;99.90;;;;;;5052644;28;20898;-75
2021/08/23 10:29:15;;;;;;;1.53;1.23;;;21.80;99.90;;;;;;5052595;28;20414;-75
2021/08/23 10:31:43;;;;;;;3.23;2.20;;;22.20;99.90;;;;;;5040277;28;20988;-75
2021/08/23 10:34:14;;;;;;;2.43;2.00;;;22.50;99.90;;;;;;5032598;28;20414;-75
2021/08/23 10:36:41;;;;;;;1.00;0.90;;;23.00;99.90;;;;;;5032488;28;20397;-75
2021/08/23 10:39:07;;;;;;;2.47;2.27;;;23.20;99.90;;;;;;5032963;28;20403;-75
2021/08/23 10:41:33;;;;;;;3.37;1.80;;;23.30;99.90;;;;;;5038220;28;20482;-75
2021/08/23 10:44:01;;;;;;;2.80;2.60;;;23.40;99.90;;;;;;5053015;28;20688;-75
2021/08/23 10:46:33;;;;;;;4.30;2.00;;;23.50;99.90;;;;;;5052639;28;20412;-76
2021/08/23 10:49:03;;;;;;;1.60;1.50;;;24.00;99.90;;;;;;5051935;28;20425;-75
2021/08/23 10:51:40;;;;;;;1.20;1.10;;;24.70;99.90;;;;;;5034637;28;20425;-75
2021/08/23 10:54:36;;;;;;;2.37;2.17;;;25.20;99.90;;;;;;5052709;28;20421;-76
2021/08/23 10:57:22;;;;;;;1.17;1.00;;;25.30;99.90;;;;;;5049088;28;20521;-75
2021/08/23 10:59:52;;;;;;;2.13;1.37;;;25.40;99.90;;;;;;5049027;28;20766;-77
2021/08/23 11:02:31;;;;;;;3.30;2.00;;;25.50;99.90;;;;;;5053823;28;20386;-79
2021/08/23 11:05:11;;;;;;;1.50;1.13;;;25.70;99.90;;;;;;5051970;28;20409;-78
2021/08/23 11:07:40;;;;;;;1.77;1.67;;;25.60;99.90;;;;;;5052261;28;20475;-78
2021/08/23 11:10:22;;;;;;;3.37;1.50;;;25.40;99.90;;;;;;5053065;28;20452;-76
2021/08/23 11:12:57;;;;;;;1.20;1.10;;;25.20;99.90;;;;;;5053208;28;20397;-78
2021/08/23 11:15:30;;;;;;;2.30;1.47;;;24.80;99.90;;;;;;5052199;28;21119;-78
2021/08/23 11:18:05;;;;;;;2.97;2.70;;;24.60;99.90;;;;;;5054326;28;20449;-77
2021/08/23 11:20:37;;;;;;;1.33;1.23;;;24.40;99.90;;;;;;5053416;28;20397;-77
2021/08/23 11:23:09;;;;;;;1.00;0.90;;;24.10;99.90;;;;;;5052484;28;20436;-78
2021/08/23 11:25:37;;;;;;;2.50;1.03;;;24.00;99.90;;;;;;5052143;28;20481;-77
2021/08/23 11:28:06;;;;;;;1.60;1.13;;;24.00;99.90;;;;;;5038049;28;20488;-77
2021/08/23 11:30:35;;;;;;;2.80;1.77;;;24.00;99.90;;;;;;5031797;28;20411;-78
2021/08/23 11:33:02;;;;;;;1.77;1.63;;;24.00;99.90;;;;;;5032730;28;20411;-77
2021/08/23 11:35:27;;;;;;;1.70;1.23;;;24.10;99.90;;;;;;5031774;28;20458;-78
2021/08/23 11:37:58;;;;;;;1.90;1.80;;;24.10;99.90;;;;;;5031890;28;20982;-78
2021/08/23 11:40:24;;;;;;;1.73;1.03;;;24.00;99.90;;;;;;5031779;28;20175;-78
2021/08/23 11:42:58;;;;;;;1.47;1.37;;;23.80;99.90;;;;;;5033052;28;20965;-78
2021/08/23 11:45:26;;;;;;;2.27;1.83;;;23.80;99.90;;;;;;5032961;28;20462;-78
2021/08/23 11:47:52;;;;;;;1.50;1.10;;;23.70;99.90;;;;;;5032541;28;20449;-78
2021/08/23 11:50:19;;;;;;;2.23;1.10;;;23.70;99.90;;;;;;5031027;28;20411;-77
2021/08/23 11:52:49;;;;;;;1.80;1.70;;;23.80;99.90;;;;;;5031142;28;20183;-76
2021/08/23 11:55:24;;;;;;;2.10;1.63;;;23.80;99.90;;;;;;5031056;28;20466;-78
2021/08/23 11:58:04;;;;;;;4.27;1.10;;;24.00;99.90;;;;;;5031258;28;20517;-77
2021/08/23 12:00:30;;;;;;;1.77;0.80;;;24.00;99.90;;;;;;5030792;28;20418;-78
2021/08/23 12:03:04;;;;;;;2.20;1.77;;;24.20;99.90;;;;;;5032782;28;20930;-78
2021/08/23 12:05:47;;;;;;;1.40;1.30;;;24.20;99.90;;;;;;5031779;28;20926;-78
2021/08/23 12:08:26;;;;;;;1.40;1.30;;;24.30;99.90;;;;;;5020000;28;20788;-78
2021/08/23 12:10:56;;;;;;;1.23;1.13;;;24.40;99.90;;;;;;5014870;28;20419;-75
2021/08/23 12:13:26;;;;;;;2.30;1.20;;;24.30;99.90;;;;;;5015052;28;20406;-78
2021/08/23 12:15:59;;;;;;;3.63;3.33;;;24.20;99.90;;;;;;5016821;28;20493;-78
2021/08/23 12:18:57;;;;;;;2.77;2.57;;;24.20;99.90;;;;;;5017991;28;20415;-78
2021/08/23 12:21:31;;;;;;;1.40;1.17;;;24.40;99.90;;;;;;5014920;28;20473;-76
2021/08/23 12:24:04;;;;;;;1.70;1.50;;;24.40;99.90;;;;;;5014876;28;20767;-75
2021/08/23 12:26:51;;;;;;;1.47;1.37;;;24.50;99.90;;;;;;5013156;28;20772;-76
2021/08/23 12:29:22;;;;;;;1.27;0.93;;;24.70;99.90;;;;;;5014611;28;20411;-75
2021/08/23 12:31:54;;;;;;;5.30;1.53;;;24.90;99.90;;;;;;5014388;28;20464;-76
2021/08/23 12:34:29;;;;;;;2.70;2.43;;;25.00;99.90;;;;;;5014422;28;20412;-76
2021/08/23 12:36:58;;;;;;;1.20;0.90;;;25.10;99.90;;;;;;5014122;28;20932;-76
2021/08/23 12:39:26;;;;;;;3.80;3.00;;;25.20;99.90;;;;;;5014383;28;20403;-76
2021/08/23 12:41:53;;;;;;;2.60;1.50;;;25.10;99.90;;;;;;5014329;28;20834;-76
2021/08/23 12:44:19;;;;;;;1.57;1.13;;;25.00;99.90;;;;;;5013171;28;20411;-76
2021/08/23 12:46:44;;;;;;;4.40;1.60;;;25.00;99.90;;;;;;5014137;28;20494;-76
2021/08/23 12:49:11;;;;;;;2.30;2.03;;;24.80;99.90;;;;;;5014248;28;20170;-76